BAW6970 EGNT-EICK
Flight info
| Callsign | BAW6970 |
|---|---|
| Flight time | N/A |
| Altitude | 38000 |
| Route | EGNT/25 GIRLI3X GIRLI P18 GASKO P16 RIBEL UP16 CROFT Y70 KOLID UL70 |
| Aircraft | A21N/M-SDE3FGHIRWY/LB1 |
Departure
| Time | 2026-05-04 22:44 |
|---|---|
| Airport | Newcastle International Airport (EGNT) |
Arrival
| Time | N/A |
|---|---|
| Airport | Cork International Airport (EICK) |
| Time | Latitude | Longitude | Altitude | Speed | Heading |
|---|---|---|---|---|---|
| 2026-05-04 22:11 | 55.03656 | -1.70637 | 266 ft | 0 kts | 351° |
| 2026-05-04 22:32 | 55.03649 | -1.70635 | 266 ft | 2 kts | 351° |
| 2026-05-04 22:32 | 55.03634 | -1.70631 | 266 ft | 2 kts | 350° |
| 2026-05-04 22:32 | 55.03619 | -1.70632 | 266 ft | 2 kts | 21° |
| 2026-05-04 22:33 | 55.03606 | -1.70645 | 267 ft | 2 kts | 45° |
| 2026-05-04 22:33 | 55.03598 | -1.70667 | 267 ft | 2 kts | 72° |
| 2026-05-04 22:33 | 55.03596 | -1.70686 | 267 ft | 0 kts | 90° |
| 2026-05-04 22:33 | 55.03596 | -1.70698 | 267 ft | 0 kts | 94° |
| 2026-05-04 22:36 | 55.03596 | -1.70682 | 267 ft | 2 kts | 94° |
| 2026-05-04 22:37 | 55.03594 | -1.70631 | 267 ft | 5 kts | 93° |
| 2026-05-04 22:37 | 55.03600 | -1.70546 | 266 ft | 8 kts | 72° |
| 2026-05-04 22:37 | 55.03643 | -1.70452 | 265 ft | 11 kts | 27° |
| 2026-05-04 22:37 | 55.03729 | -1.70429 | 265 ft | 13 kts | 5° |
| 2026-05-04 22:38 | 55.03788 | -1.70314 | 264 ft | 15 kts | 92° |
| 2026-05-04 22:38 | 55.03777 | -1.70117 | 262 ft | 17 kts | 95° |
| 2026-05-04 22:38 | 55.03781 | -1.69884 | 259 ft | 20 kts | 81° |
| 2026-05-04 22:38 | 55.03786 | -1.69854 | 258 ft | 0 kts | 69° |
| 2026-05-04 22:39 | 55.03786 | -1.69850 | 258 ft | 1 kts | 71° |
| 2026-05-04 22:39 | 55.03791 | -1.69811 | 258 ft | 5 kts | 81° |
| 2026-05-04 22:39 | 55.03800 | -1.69721 | 257 ft | 9 kts | 79° |
| 2026-05-04 22:39 | 55.03833 | -1.69526 | 255 ft | 23 kts | 68° |
| 2026-05-04 22:40 | 55.03904 | -1.69257 | 251 ft | 25 kts | 63° |
| 2026-05-04 22:40 | 55.03981 | -1.68969 | 248 ft | 27 kts | 66° |
| 2026-05-04 22:40 | 55.04066 | -1.68660 | 244 ft | 29 kts | 64° |
| 2026-05-04 22:40 | 55.04152 | -1.68328 | 241 ft | 30 kts | 66° |
| 2026-05-04 22:41 | 55.04241 | -1.67988 | 239 ft | 31 kts | 65° |
| 2026-05-04 22:41 | 55.04321 | -1.67681 | 240 ft | 19 kts | 66° |
| 2026-05-04 22:41 | 55.04336 | -1.67555 | 241 ft | 0 kts | 86° |
| 2026-05-04 22:41 | 55.04330 | -1.67445 | 241 ft | 16 kts | 107° |
| 2026-05-04 22:42 | 55.04258 | -1.67360 | 242 ft | 13 kts | 181° |
| 2026-05-04 22:42 | 55.04198 | -1.67457 | 241 ft | 8 kts | 242° |
| 2026-05-04 22:42 | 55.04185 | -1.67502 | 241 ft | 0 kts | 246° |
| 2026-05-04 22:43 | 55.04185 | -1.67503 | 241 ft | 1 kts | 246° |
| 2026-05-04 22:43 | 55.04068 | -1.67948 | 239 ft | 82 kts | 245° |
| 2026-05-04 22:43 | 55.03719 | -1.69250 | 254 ft | 149 kts | 245° |
| 2026-05-04 22:43 | 55.03214 | -1.71032 | 673 ft | 170 kts | 246° |
| 2026-05-04 22:44 | 55.02762 | -1.72845 | 1523 ft | 167 kts | 251° |
| 2026-05-04 22:44 | 55.02184 | -1.74579 | 2298 ft | 176 kts | 225° |
| 2026-05-04 22:44 | 55.01066 | -1.75612 | 2923 ft | 193 kts | 206° |
| 2026-05-04 22:44 | 54.99757 | -1.76502 | 3518 ft | 210 kts | 204° |
| 2026-05-04 22:45 | 54.98354 | -1.77431 | 4058 ft | 229 kts | 203° |
| 2026-05-04 22:45 | 54.95125 | -1.79606 | 5313 ft | 266 kts | 204° |
| 2026-05-04 22:45 | 54.93409 | -1.80775 | 6284 ft | 270 kts | 203° |
| 2026-05-04 22:46 | 54.91653 | -1.81977 | 7139 ft | 272 kts | 204° |
| 2026-05-04 22:46 | 54.89887 | -1.83186 | 7691 ft | 274 kts | 204° |
| 2026-05-04 22:46 | 54.88100 | -1.84407 | 7973 ft | 276 kts | 204° |
| 2026-05-04 22:46 | 54.86314 | -1.85624 | 7998 ft | 276 kts | 204° |
| 2026-05-04 22:47 | 54.84539 | -1.86838 | 7998 ft | 276 kts | 204° |
| 2026-05-04 22:47 | 54.82731 | -1.88021 | 7993 ft | 278 kts | 197° |
| 2026-05-04 22:47 | 54.80791 | -1.88147 | 7985 ft | 282 kts | 169° |
| 2026-05-04 22:47 | 54.78947 | -1.86923 | 8010 ft | 285 kts | 156° |
| 2026-05-04 22:48 | 54.77180 | -1.85417 | 8013 ft | 286 kts | 155° |
| 2026-05-04 22:48 | 54.75380 | -1.83879 | 8000 ft | 286 kts | 155° |
| 2026-05-04 22:48 | 54.73599 | -1.82395 | 7992 ft | 285 kts | 156° |
| 2026-05-04 22:48 | 54.71779 | -1.81072 | 7986 ft | 283 kts | 167° |
| 2026-05-04 22:49 | 54.69833 | -1.80743 | 8037 ft | 282 kts | 187° |
| 2026-05-04 22:49 | 54.67874 | -1.81271 | 8557 ft | 288 kts | 193° |
| 2026-05-04 22:49 | 54.65913 | -1.81928 | 9550 ft | 288 kts | 193° |
| 2026-05-04 22:49 | 54.63974 | -1.82578 | 10394 ft | 291 kts | 194° |
| 2026-05-04 22:50 | 54.61940 | -1.83250 | 10931 ft | 306 kts | 193° |
| 2026-05-04 22:50 | 54.59785 | -1.83947 | 11422 ft | 322 kts | 193° |
| 2026-05-04 22:50 | 54.57555 | -1.84655 | 12169 ft | 328 kts | 193° |
| 2026-05-04 22:50 | 54.55312 | -1.85359 | 13018 ft | 330 kts | 193° |
| 2026-05-04 22:51 | 54.53077 | -1.86061 | 13809 ft | 333 kts | 193° |
| 2026-05-04 22:51 | 54.50782 | -1.86783 | 14572 ft | 337 kts | 193° |
| 2026-05-04 22:51 | 54.48468 | -1.87511 | 15320 ft | 340 kts | 193° |
| 2026-05-04 22:51 | 54.46148 | -1.88241 | 16049 ft | 344 kts | 193° |
| 2026-05-04 22:52 | 54.43784 | -1.88983 | 16749 ft | 347 kts | 193° |
| 2026-05-04 22:52 | 54.41421 | -1.89722 | 17448 ft | 350 kts | 193° |
| 2026-05-04 22:52 | 54.39012 | -1.90476 | 18131 ft | 354 kts | 193° |
| 2026-05-04 22:52 | 54.36620 | -1.91224 | 18802 ft | 357 kts | 192° |
| 2026-05-04 22:53 | 54.34161 | -1.91991 | 19435 ft | 360 kts | 192° |
| 2026-05-04 22:53 | 54.31686 | -1.92763 | 20040 ft | 365 kts | 192° |
| 2026-05-04 22:53 | 54.29175 | -1.93545 | 20628 ft | 369 kts | 192° |
| 2026-05-04 22:53 | 54.26631 | -1.94336 | 21189 ft | 374 kts | 192° |
| 2026-05-04 22:54 | 54.24122 | -1.95341 | 21728 ft | 377 kts | 200° |
| 2026-05-04 22:54 | 54.21730 | -1.97266 | 22267 ft | 378 kts | 213° |
| 2026-05-04 22:54 | 54.19656 | -2.00007 | 22795 ft | 380 kts | 223° |
| 2026-05-04 22:54 | 54.17740 | -2.03069 | 23319 ft | 384 kts | 225° |
| 2026-05-04 22:55 | 54.15783 | -2.06271 | 23817 ft | 389 kts | 225° |
| 2026-05-04 22:55 | 54.13823 | -2.09463 | 24315 ft | 392 kts | 225° |
| 2026-05-04 22:55 | 54.11859 | -2.12636 | 24819 ft | 396 kts | 224° |
| 2026-05-04 22:55 | 54.09857 | -2.15850 | 25308 ft | 399 kts | 224° |
| 2026-05-04 22:56 | 54.07809 | -2.19119 | 25791 ft | 402 kts | 224° |
| 2026-05-04 22:56 | 54.05786 | -2.22346 | 26256 ft | 405 kts | 224° |
| 2026-05-04 22:56 | 54.03698 | -2.25601 | 26706 ft | 408 kts | 221° |
| 2026-05-04 22:56 | 54.01412 | -2.28441 | 27125 ft | 412 kts | 213° |
| 2026-05-04 22:57 | 53.98889 | -2.30735 | 27549 ft | 415 kts | 205° |
| 2026-05-04 22:57 | 53.96194 | -2.32576 | 27969 ft | 418 kts | 202° |
| 2026-05-04 22:57 | 53.93465 | -2.34313 | 28342 ft | 422 kts | 201° |
| 2026-05-04 22:57 | 53.90704 | -2.36055 | 28712 ft | 425 kts | 201° |
| 2026-05-04 22:58 | 53.87938 | -2.37804 | 29077 ft | 428 kts | 201° |
| 2026-05-04 22:58 | 53.85130 | -2.39584 | 29436 ft | 431 kts | 201° |
| 2026-05-04 22:58 | 53.82312 | -2.41379 | 29776 ft | 434 kts | 201° |
| 2026-05-04 22:58 | 53.79485 | -2.43186 | 30116 ft | 436 kts | 201° |
| 2026-05-04 22:59 | 53.76618 | -2.45019 | 30437 ft | 439 kts | 201° |
| 2026-05-04 22:59 | 53.73761 | -2.46842 | 30749 ft | 441 kts | 201° |
| 2026-05-04 22:59 | 53.70884 | -2.48718 | 31017 ft | 444 kts | 204° |
| 2026-05-04 22:59 | 53.68119 | -2.51083 | 31268 ft | 447 kts | 212° |
| 2026-05-04 23:00 | 53.65586 | -2.54035 | 31521 ft | 449 kts | 220° |
| 2026-05-04 23:00 | 53.63264 | -2.57639 | 31787 ft | 450 kts | 228° |
| 2026-05-04 23:00 | 53.61289 | -2.61700 | 32069 ft | 451 kts | 237° |
| 2026-05-04 23:00 | 53.59666 | -2.66181 | 32441 ft | 448 kts | 244° |
| 2026-05-04 23:01 | 53.58432 | -2.70959 | 32776 ft | 446 kts | 252° |
| 2026-05-04 23:01 | 53.57598 | -2.75954 | 33069 ft | 445 kts | 260° |
| 2026-05-04 23:01 | 53.57169 | -2.81100 | 33341 ft | 443 kts | 268° |
| 2026-05-04 23:01 | 53.57157 | -2.86270 | 33601 ft | 442 kts | 276° |
| 2026-05-04 23:02 | 53.57545 | -2.91316 | 33904 ft | 439 kts | 283° |
| 2026-05-04 23:02 | 53.58099 | -2.96389 | 34239 ft | 439 kts | 281° |
| 2026-05-04 23:02 | 53.58468 | -3.01438 | 34571 ft | 438 kts | 278° |
| 2026-05-04 23:02 | 53.58770 | -3.06496 | 34861 ft | 437 kts | 278° |
| 2026-05-04 23:03 | 53.59048 | -3.11607 | 35107 ft | 436 kts | 277° |
| 2026-05-04 23:03 | 53.59306 | -3.16678 | 35342 ft | 436 kts | 277° |
| 2026-05-04 23:03 | 53.59552 | -3.21714 | 35561 ft | 435 kts | 277° |
| 2026-05-04 23:03 | 53.59795 | -3.26797 | 35766 ft | 435 kts | 276° |
| 2026-05-04 23:04 | 53.60030 | -3.31801 | 35955 ft | 435 kts | 276° |
| 2026-05-04 23:04 | 53.60265 | -3.36885 | 36155 ft | 434 kts | 276° |
| 2026-05-04 23:04 | 53.60498 | -3.41951 | 36350 ft | 434 kts | 276° |
| 2026-05-04 23:04 | 53.60728 | -3.47002 | 36499 ft | 434 kts | 276° |
| 2026-05-04 23:05 | 53.60954 | -3.52012 | 36620 ft | 435 kts | 276° |
| 2026-05-04 23:05 | 53.61182 | -3.57106 | 36765 ft | 436 kts | 276° |
| 2026-05-04 23:05 | 53.61402 | -3.62124 | 36919 ft | 436 kts | 276° |
| 2026-05-04 23:05 | 53.61625 | -3.67243 | 37060 ft | 437 kts | 275° |
| 2026-05-04 23:06 | 53.61842 | -3.72338 | 37204 ft | 438 kts | 275° |
| 2026-05-04 23:06 | 53.62053 | -3.77400 | 37356 ft | 439 kts | 275° |
| 2026-05-04 23:06 | 53.62265 | -3.82556 | 37488 ft | 439 kts | 275° |
| 2026-05-04 23:06 | 53.62471 | -3.87628 | 37607 ft | 440 kts | 275° |
| 2026-05-04 23:07 | 53.62679 | -3.92774 | 37712 ft | 441 kts | 275° |
| 2026-05-04 23:07 | 53.62885 | -3.97919 | 37819 ft | 442 kts | 275° |
| 2026-05-04 23:07 | 53.63092 | -4.03109 | 37944 ft | 443 kts | 275° |
| 2026-05-04 23:07 | 53.63295 | -4.08284 | 38033 ft | 444 kts | 275° |
| 2026-05-04 23:08 | 53.63694 | -4.18596 | 38040 ft | 444 kts | 275° |
| 2026-05-04 23:08 | 53.64082 | -4.28933 | 38057 ft | 444 kts | 275° |
| 2026-05-04 23:09 | 53.64464 | -4.39259 | 38060 ft | 443 kts | 275° |
| 2026-05-04 23:09 | 53.64835 | -4.49542 | 38050 ft | 443 kts | 275° |
| 2026-05-04 23:10 | 53.65199 | -4.59909 | 38055 ft | 443 kts | 275° |
| 2026-05-04 23:10 | 53.65553 | -4.70209 | 38060 ft | 442 kts | 274° |
| 2026-05-04 23:11 | 53.65898 | -4.80586 | 38049 ft | 443 kts | 274° |
| 2026-05-04 23:11 | 53.66236 | -4.90927 | 38056 ft | 442 kts | 274° |
| 2026-05-04 23:12 | 53.66568 | -5.01205 | 38056 ft | 441 kts | 274° |
| 2026-05-04 23:12 | 53.66891 | -5.11531 | 38064 ft | 441 kts | 274° |
| 2026-05-04 23:13 | 53.67199 | -5.21785 | 38069 ft | 441 kts | 274° |
| 2026-05-04 23:13 | 53.67493 | -5.32061 | 38062 ft | 441 kts | 274° |
| 2026-05-04 23:14 | 53.67151 | -5.42330 | 38055 ft | 443 kts | 261° |
| 2026-05-04 23:14 | 53.65176 | -5.52139 | 38056 ft | 446 kts | 245° |
| 2026-05-04 23:15 | 53.61685 | -5.60732 | 38059 ft | 448 kts | 229° |
| 2026-05-04 23:15 | 53.57337 | -5.68219 | 38047 ft | 448 kts | 226° |
| 2026-05-04 23:16 | 53.52914 | -5.75680 | 38044 ft | 449 kts | 226° |
| 2026-05-04 23:16 | 53.48549 | -5.83054 | 38051 ft | 449 kts | 226° |
| 2026-05-04 23:17 | 53.44164 | -5.90454 | 38047 ft | 449 kts | 226° |
| 2026-05-04 23:17 | 53.39752 | -5.97885 | 38063 ft | 449 kts | 226° |
| 2026-05-04 23:18 | 53.35371 | -6.05239 | 38046 ft | 449 kts | 226° |
| 2026-05-04 23:18 | 53.30944 | -6.12648 | 38045 ft | 449 kts | 226° |
| 2026-05-04 23:19 | 53.26553 | -6.19977 | 38042 ft | 449 kts | 226° |
| 2026-05-04 23:19 | 53.22152 | -6.27299 | 38032 ft | 449 kts | 226° |
| 2026-05-04 23:20 | 53.17737 | -6.34623 | 38033 ft | 450 kts | 226° |
| 2026-05-04 23:20 | 53.13298 | -6.41963 | 38033 ft | 450 kts | 226° |
| 2026-05-04 23:21 | 53.08851 | -6.49293 | 38038 ft | 450 kts | 226° |
| 2026-05-04 23:21 | 53.04424 | -6.56565 | 38031 ft | 450 kts | 226° |
| 2026-05-04 23:22 | 52.99995 | -6.63823 | 38045 ft | 450 kts | 226° |
| 2026-05-04 23:22 | 52.95528 | -6.71138 | 38042 ft | 450 kts | 225° |
| 2026-05-04 23:23 | 52.91067 | -6.78423 | 38037 ft | 450 kts | 225° |
| 2026-05-04 23:23 | 52.86604 | -6.85650 | 38045 ft | 449 kts | 225° |
| 2026-05-04 23:24 | 52.84384 | -6.89222 | 37897 ft | 446 kts | 225° |
| 2026-05-04 23:24 | 52.82172 | -6.92782 | 37445 ft | 444 kts | 225° |
| 2026-05-04 23:24 | 52.79977 | -6.96317 | 36859 ft | 443 kts | 225° |
| 2026-05-04 23:24 | 52.77785 | -6.99846 | 36353 ft | 442 kts | 225° |
| 2026-05-04 23:25 | 52.75603 | -7.03355 | 35820 ft | 442 kts | 225° |
| 2026-05-04 23:25 | 52.73381 | -7.06926 | 35220 ft | 444 kts | 225° |
| 2026-05-04 23:25 | 52.71171 | -7.10475 | 34564 ft | 447 kts | 225° |
| 2026-05-04 23:25 | 52.68974 | -7.13999 | 33830 ft | 450 kts | 225° |
| 2026-05-04 23:26 | 52.66729 | -7.17595 | 33074 ft | 452 kts | 225° |
| 2026-05-04 23:26 | 52.64469 | -7.21207 | 32337 ft | 454 kts | 225° |
| 2026-05-04 23:26 | 52.62206 | -7.24819 | 31618 ft | 455 kts | 225° |
| 2026-05-04 23:26 | 52.59956 | -7.28403 | 30947 ft | 454 kts | 225° |
| 2026-05-04 23:27 | 52.57697 | -7.31993 | 30447 ft | 449 kts | 225° |
| 2026-05-04 23:27 | 52.55472 | -7.35527 | 29928 ft | 445 kts | 225° |
| 2026-05-04 23:27 | 52.53256 | -7.39042 | 29370 ft | 442 kts | 225° |
| 2026-05-04 23:27 | 52.51075 | -7.42498 | 28805 ft | 439 kts | 225° |
| 2026-05-04 23:28 | 52.48869 | -7.45987 | 28242 ft | 436 kts | 225° |
| 2026-05-04 23:28 | 52.46716 | -7.49385 | 27701 ft | 433 kts | 225° |
| 2026-05-04 23:28 | 52.44563 | -7.52781 | 27161 ft | 430 kts | 225° |
| 2026-05-04 23:28 | 52.42398 | -7.56191 | 26633 ft | 426 kts | 225° |
| 2026-05-04 23:29 | 52.40302 | -7.59488 | 26130 ft | 422 kts | 225° |
| 2026-05-04 23:29 | 52.38174 | -7.62830 | 25609 ft | 419 kts | 225° |
| 2026-05-04 23:29 | 52.36095 | -7.66092 | 25083 ft | 417 kts | 224° |
| 2026-05-04 23:29 | 52.34014 | -7.69366 | 24564 ft | 414 kts | 225° |
| 2026-05-04 23:30 | 52.31931 | -7.72636 | 24047 ft | 412 kts | 225° |
| 2026-05-04 23:30 | 52.29895 | -7.75824 | 23565 ft | 409 kts | 225° |
| 2026-05-04 23:30 | 52.27836 | -7.79040 | 23103 ft | 406 kts | 224° |
| 2026-05-04 23:30 | 52.25817 | -7.82191 | 22630 ft | 403 kts | 224° |
| 2026-05-04 23:31 | 52.23800 | -7.85328 | 22170 ft | 400 kts | 224° |
| 2026-05-04 23:31 | 52.21805 | -7.88427 | 21712 ft | 397 kts | 224° |
| 2026-05-04 23:31 | 52.19821 | -7.91505 | 21250 ft | 394 kts | 224° |
| 2026-05-04 23:31 | 52.17839 | -7.94574 | 20970 ft | 385 kts | 224° |
| 2026-05-04 23:32 | 52.15929 | -7.97528 | 20779 ft | 375 kts | 224° |
| 2026-05-04 23:32 | 52.14079 | -8.00385 | 20595 ft | 365 kts | 224° |
| 2026-05-04 23:32 | 52.13450 | -8.01358 | 20533 ft | 361 kts | 225° |